Time;durP1;ratioP1;P1;durP2;ratioP2;P2;SDS_P1;SDS_P2;PMS_P1;PMS_P2;Temp;Humidity;BMP_temperature;BMP_pressure;BME280_temperature;BME280_humidity;BME280_pressure;Samples;Min_cycle;Max_cycle;Signal;HPM_P1;HPM_P2
2023/05/30 00:00:43;;;;;;;6.28;5.45;;;14.30;99.90;;;15.18;66.31;98122.34;5146855;28;20648;-77
2023/05/30 00:03:17;;;;;;;6.35;5.70;;;14.30;99.90;;;15.21;66.20;98125.03;5142376;28;20226;-77
2023/05/30 00:05:51;;;;;;;6.05;5.45;;;14.40;99.90;;;15.24;65.87;98126.88;5143201;28;20222;-78
2023/05/30 00:08:26;;;;;;;7.05;5.55;;;14.40;99.90;;;15.17;65.64;98130.00;5149185;28;20245;-77
2023/05/30 00:11:00;;;;;;;7.63;5.70;;;14.40;99.90;;;15.13;65.62;98136.69;5150866;28;20223;-77
2023/05/30 00:13:33;;;;;;;6.15;5.55;;;14.40;99.90;;;15.16;65.73;98133.38;5152149;28;20278;-77
2023/05/30 00:16:07;;;;;;;6.28;5.32;;;14.40;99.90;;;15.18;65.91;98140.34;5141554;28;20228;-77
2023/05/30 00:18:40;;;;;;;6.97;5.35;;;14.40;99.90;;;15.27;65.92;98148.47;5143648;28;20688;-77
2023/05/30 00:21:14;;;;;;;6.68;5.88;;;14.50;99.90;;;15.46;65.38;98145.00;5149252;28;20823;-78
2023/05/30 00:23:48;;;;;;;6.40;5.80;;;14.60;99.90;;;15.42;65.73;98152.53;5148456;28;20264;-77
2023/05/30 00:26:22;;;;;;;6.28;5.72;;;14.50;99.90;;;15.27;65.85;98151.06;5138660;28;20313;-76
2023/05/30 00:28:55;;;;;;;7.68;6.00;;;14.40;99.90;;;15.23;66.24;98156.91;5148203;28;20322;-77
2023/05/30 00:31:29;;;;;;;6.15;5.55;;;14.40;99.90;;;15.03;66.88;98150.88;5144812;28;20618;-77
2023/05/30 00:34:02;;;;;;;5.85;5.30;;;14.20;99.90;;;14.94;66.75;98154.75;5141371;28;20254;-78
2023/05/30 00:36:35;;;;;;;6.60;5.90;;;14.20;99.90;;;15.10;67.21;98146.88;5148659;28;20270;-77
2023/05/30 00:39:10;;;;;;;6.90;5.50;;;14.30;99.90;;;15.10;66.61;98154.59;5149433;28;20219;-78
2023/05/30 00:41:43;;;;;;;5.45;4.95;;;14.30;99.90;;;15.11;67.25;98151.22;5137821;28;20227;-78
2023/05/30 00:44:16;;;;;;;5.75;5.18;;;14.30;99.90;;;15.19;66.36;98146.38;5148415;28;20227;-77
2023/05/30 00:46:51;;;;;;;5.88;5.38;;;14.30;99.90;;;15.12;67.10;98149.53;5141050;28;20224;-78
2023/05/30 00:49:26;;;;;;;6.25;5.70;;;14.20;99.90;;;15.10;67.31;98154.59;5141982;28;20239;-78
2023/05/30 00:51:59;;;;;;;7.22;5.68;;;14.20;99.90;;;15.01;67.58;98143.88;5146108;28;20700;-78
2023/05/30 00:54:33;;;;;;;6.47;5.90;;;14.20;99.90;;;14.97;67.46;98147.16;5154552;28;20235;-77
2023/05/30 00:57:07;;;;;;;6.55;5.90;;;14.20;99.90;;;15.05;67.52;98146.69;5141343;28;20223;-77
2023/05/30 00:59:41;;;;;;;7.60;5.40;;;14.20;99.90;;;15.04;66.17;98150.03;5146494;28;20231;-77
2023/05/30 01:02:14;;;;;;;6.22;5.60;;;14.20;99.90;;;15.00;66.90;98147.28;5149720;28;20294;-78
2023/05/30 01:04:48;;;;;;;6.55;5.85;;;14.20;99.90;;;15.07;65.89;98146.72;5149778;28;20607;-78
2023/05/30 01:07:21;;;;;;;6.13;5.53;;;14.20;99.90;;;15.03;66.51;98148.28;5145869;28;20735;-77
2023/05/30 01:09:56;;;;;;;6.75;6.05;;;14.20;99.90;;;14.97;66.09;98144.59;5145654;28;20219;-78
2023/05/30 01:12:39;;;;;;;6.07;5.43;;;14.20;99.90;;;15.04;66.75;98155.19;5138762;28;20239;-77
2023/05/30 01:15:15;;;;;;;6.68;6.03;;;14.20;99.90;;;15.09;66.55;98142.53;5146076;28;20223;-77
2023/05/30 01:18:01;;;;;;;7.30;5.70;;;14.30;99.90;;;15.14;66.28;98135.91;5147410;28;20293;-78
2023/05/30 01:20:40;;;;;;;7.13;5.60;;;14.30;99.90;;;15.10;66.80;98132.28;5146067;28;20282;-77
2023/05/30 01:23:37;;;;;;;6.57;5.97;;;14.20;99.90;;;15.06;66.72;98132.09;5150328;28;20334;-77
2023/05/30 01:26:32;;;;;;;6.20;5.60;;;14.20;99.90;;;15.08;66.19;98126.22;5146725;28;20234;-78
2023/05/30 01:29:08;;;;;;;5.93;5.30;;;14.10;99.90;;;15.12;66.64;98132.38;5142440;28;20251;-77
2023/05/30 01:31:41;;;;;;;6.15;5.63;;;14.20;99.90;;;15.01;66.67;98129.31;5140539;28;20239;-77
2023/05/30 01:34:15;;;;;;;6.90;6.25;;;14.20;99.90;;;15.16;66.19;98126.53;5141090;28;20226;-77
2023/05/30 01:36:48;;;;;;;6.70;5.55;;;14.30;99.90;;;15.16;66.41;98126.53;5149549;28;20225;-78
2023/05/30 01:39:22;;;;;;;6.60;6.00;;;14.20;99.90;;;15.18;66.11;98117.19;5148765;28;20231;-77
2023/05/30 01:42:03;;;;;;;6.47;5.80;;;14.30;99.90;;;15.03;66.57;98121.69;5141436;28;20290;-78
2023/05/30 01:44:48;;;;;;;6.38;5.72;;;14.20;99.90;;;14.91;66.38;98126.25;5140966;28;20232;-77
2023/05/30 01:47:29;;;;;;;5.60;5.10;;;14.10;99.90;;;14.90;66.84;98120.25;5144288;28;20278;-77
2023/05/30 01:50:12;;;;;;;6.47;5.88;;;14.10;99.90;;;15.01;66.90;98118.16;5156743;28;20216;-79
2023/05/30 01:52:51;;;;;;;6.93;6.22;;;14.10;99.90;;;15.00;66.90;98118.97;5156423;28;20227;-77
2023/05/30 01:55:27;;;;;;;8.18;5.88;;;14.10;99.90;;;14.95;66.86;98123.03;5154726;28;20306;-77
2023/05/30 01:58:00;;;;;;;5.82;5.25;;;14.00;99.90;;;14.96;67.07;98120.50;5147655;28;20235;-78
2023/05/30 02:00:35;;;;;;;8.07;6.25;;;14.00;99.90;;;14.74;67.27;98112.69;5147933;28;20227;-75
2023/05/30 02:03:08;;;;;;;6.88;5.85;;;13.90;99.90;;;14.70;67.23;98121.94;5148456;28;20223;-77
2023/05/30 02:05:42;;;;;;;7.28;5.65;;;13.80;99.90;;;14.72;67.06;98125.47;5148738;28;20224;-76
2023/05/30 02:08:15;;;;;;;8.40;6.40;;;13.80;99.90;;;14.72;67.59;98119.44;5152145;28;20224;-77
2023/05/30 02:10:48;;;;;;;5.95;5.30;;;13.90;99.90;;;14.65;67.94;98120.88;5147265;28;20215;-77
2023/05/30 02:13:21;;;;;;;6.78;5.72;;;13.80;99.90;;;14.69;67.63;98124.44;5153496;28;20307;-77
2023/05/30 02:15:56;;;;;;;7.35;5.70;;;13.90;99.90;;;14.67;67.83;98120.91;5144221;28;20215;-77
2023/05/30 02:18:29;;;;;;;5.80;5.30;;;13.90;99.90;;;14.73;67.36;98116.03;5139902;28;20246;-77
2023/05/30 02:21:02;;;;;;;6.47;5.40;;;13.90;99.90;;;14.77;66.83;98123.09;5145218;28;20787;-77
2023/05/30 02:23:36;;;;;;;6.30;5.65;;;13.90;99.90;;;14.71;67.17;98120.22;5149794;28;20223;-77
2023/05/30 02:26:09;;;;;;;6.50;5.90;;;13.90;99.90;;;14.62;67.69;98123.28;5151542;28;20869;-77
2023/05/30 02:28:42;;;;;;;7.35;5.68;;;13.90;99.90;;;14.60;68.59;98124.91;5153775;28;20282;-77
2023/05/30 02:31:17;;;;;;;6.18;5.57;;;13.80;99.90;;;14.65;67.59;98128.59;5144613;28;20224;-76
2023/05/30 02:33:50;;;;;;;5.72;5.20;;;13.80;99.90;;;14.69;68.32;98125.31;5141904;28;20282;-77
2023/05/30 02:36:23;;;;;;;6.53;5.50;;;13.80;99.90;;;14.70;68.14;98127.06;5147631;28;20243;-76
2023/05/30 02:38:56;;;;;;;8.18;5.88;;;13.80;99.90;;;14.68;68.22;98128.72;5145933;28;20238;-76
2023/05/30 02:41:29;;;;;;;6.43;5.47;;;13.70;99.90;;;14.51;69.56;98122.78;5144646;28;20224;-76
2023/05/30 02:44:03;;;;;;;6.47;5.90;;;13.60;99.90;;;14.47;68.86;98118.28;5146782;28;20227;-76
2023/05/30 02:46:37;;;;;;;7.63;5.72;;;13.60;99.90;;;14.40;69.94;98111.97;5144299;28;20711;-76
2023/05/30 02:49:11;;;;;;;6.30;5.63;;;13.60;99.90;;;14.40;68.91;98116.25;5141888;28;20227;-77
2023/05/30 02:51:44;;;;;;;7.38;6.10;;;13.60;99.90;;;14.37;69.26;98122.13;5148283;28;20274;-76
2023/05/30 02:54:17;;;;;;;6.18;5.57;;;13.50;99.90;;;14.35;70.09;98122.88;5154155;28;20227;-76
2023/05/30 02:56:50;;;;;;;5.80;5.30;;;13.50;99.90;;;14.42;68.85;98124.91;5147761;28;20227;-77
2023/05/30 02:59:24;;;;;;;6.70;5.90;;;13.50;99.90;;;14.38;70.00;98123.88;5146094;28;20236;-76
2023/05/30 03:01:58;;;;;;;6.22;5.60;;;13.50;99.90;;;14.41;70.33;98126.59;5140280;28;20255;-77
2023/05/30 03:04:31;;;;;;;6.45;5.35;;;13.50;99.90;;;14.40;70.71;98126.53;5141319;28;20721;-76
2023/05/30 03:07:07;;;;;;;6.10;5.50;;;13.50;99.90;;;14.28;70.54;98124.28;5146291;28;20239;-77
2023/05/30 03:09:41;;;;;;;6.45;5.82;;;13.40;99.90;;;14.25;70.96;98126.72;5140881;28;20258;-75
2023/05/30 03:12:14;;;;;;;6.72;6.13;;;13.40;99.90;;;14.20;70.11;98123.91;5150875;28;20687;-76
2023/05/30 03:14:47;;;;;;;6.53;5.68;;;13.30;99.90;;;14.20;70.54;98131.63;5158414;28;20286;-76
2023/05/30 03:17:23;;;;;;;6.03;5.43;;;13.40;99.90;;;14.16;70.07;98128.81;5142524;28;20697;-77
2023/05/30 03:19:56;;;;;;;6.03;5.40;;;13.30;99.90;;;14.16;70.18;98128.81;5146238;28;20603;-76
2023/05/30 03:22:29;;;;;;;7.05;5.70;;;13.30;99.90;;;14.18;70.86;98129.78;5139394;28;20729;-77
2023/05/30 03:25:02;;;;;;;6.03;5.38;;;13.40;99.90;;;14.14;70.12;98143.31;5146889;28;20243;-76
2023/05/30 03:27:35;;;;;;;6.40;5.55;;;13.30;99.90;;;14.08;69.99;98137.84;5142478;28;21059;-76
2023/05/30 03:30:11;;;;;;;6.40;5.80;;;13.30;99.90;;;14.13;70.76;98141.53;5153149;28;20223;-77
2023/05/30 03:32:48;;;;;;;6.20;5.70;;;13.30;99.90;;;14.13;71.80;98144.09;5147554;28;20235;-77
2023/05/30 03:35:21;;;;;;;6.32;5.68;;;13.30;99.90;;;14.12;71.94;98147.50;5135839;28;20232;-76
2023/05/30 03:37:55;;;;;;;6.38;5.75;;;13.30;99.90;;;14.11;71.67;98144.03;5150973;28;20245;-77
2023/05/30 03:40:28;;;;;;;6.40;5.78;;;13.20;99.90;;;14.10;72.07;98142.25;5148128;28;20228;-77
2023/05/30 03:43:01;;;;;;;6.68;5.95;;;13.20;99.90;;;14.08;72.61;98153.28;5144214;28;20267;-77
2023/05/30 03:45:34;;;;;;;6.13;5.63;;;13.20;99.90;;;14.07;73.30;98152.41;5146908;28;20306;-76
2023/05/30 03:48:09;;;;;;;7.25;5.68;;;13.10;99.90;;;14.10;73.66;98152.53;5143075;28;20231;-77
2023/05/30 03:50:42;;;;;;;6.22;5.63;;;13.20;99.90;;;14.08;72.79;98153.28;5145044;28;20258;-77
2023/05/30 03:53:15;;;;;;;6.78;5.60;;;13.10;99.90;;;14.07;73.99;98159.25;5139165;28;20228;-76
2023/05/30 03:55:48;;;;;;;6.38;5.25;;;13.10;99.90;;;14.00;73.88;98157.19;5137890;28;20247;-76
2023/05/30 03:58:21;;;;;;;6.15;5.60;;;13.10;99.90;;;14.11;73.97;98159.47;5144376;28;20224;-77
2023/05/30 04:00:55;;;;;;;6.25;5.65;;;13.10;99.90;;;14.08;73.99;98151.63;5156093;28;20219;-77
2023/05/30 04:03:30;;;;;;;7.38;5.70;;;13.10;99.90;;;14.12;73.40;98160.34;5151759;28;20257;-77
2023/05/30 04:06:05;;;;;;;8.15;6.38;;;13.20;99.90;;;14.17;73.70;98158.88;5138705;28;20255;-77
2023/05/30 04:08:39;;;;;;;7.32;6.32;;;13.20;99.90;;;14.18;75.01;98169.22;5144906;28;20286;-77
2023/05/30 04:11:13;;;;;;;6.45;5.82;;;13.20;99.90;;;14.29;74.11;98168.88;5147231;28;20230;-77
2023/05/30 04:13:46;;;;;;;6.70;6.03;;;13.30;99.90;;;14.34;74.21;98173.41;5139584;28;20219;-77
2023/05/30 04:16:19;;;;;;;6.47;5.88;;;13.30;99.90;;;14.35;75.22;98170.03;5144368;28;20764;-77
2023/05/30 04:18:54;;;;;;;6.97;6.20;;;13.40;99.90;;;14.38;73.83;98175.31;5145785;28;20605;-77
2023/05/30 04:21:27;;;;;;;6.95;6.07;;;13.30;99.90;;;14.45;73.43;98171.38;5139213;28;20227;-77
2023/05/30 04:24:00;;;;;;;8.18;6.18;;;13.30;99.90;;;14.45;73.31;98180.75;5145747;28;20219;-77
2023/05/30 04:26:34;;;;;;;7.53;6.70;;;13.30;99.90;;;14.40;73.42;98176.28;5142085;28;20303;-77
2023/05/30 04:29:08;;;;;;;7.05;6.03;;;13.30;99.90;;;14.49;73.21;98183.53;5149646;28;20224;-77
2023/05/30 04:31:43;;;;;;;6.93;6.22;;;13.30;99.90;;;14.56;73.44;98185.59;5139844;28;20598;-77
2023/05/30 04:34:18;;;;;;;7.03;6.32;;;13.40;99.90;;;14.62;72.75;98185.91;5146265;28;20830;-76
2023/05/30 04:36:53;;;;;;;7.38;6.32;;;13.40;99.90;;;14.54;73.58;98191.53;5141106;28;20613;-76
2023/05/30 04:39:27;;;;;;;8.23;7.05;;;13.40;99.90;;;14.56;73.61;98184.72;5152721;28;20222;-76
2023/05/30 04:42:04;;;;;;;7.40;6.43;;;13.40;99.90;;;14.63;73.26;98191.94;5139915;28;20228;-77
2023/05/30 04:44:39;;;;;;;8.10;6.85;;;13.50;99.90;;;14.68;73.82;98195.63;5143274;28;20326;-76
2023/05/30 04:47:12;;;;;;;7.93;6.90;;;13.50;99.90;;;14.74;73.60;98197.59;5143410;28;20227;-76
2023/05/30 04:49:46;;;;;;;9.15;7.05;;;13.60;99.90;;;14.79;73.19;98199.56;5140337;28;20227;-77
2023/05/30 04:52:19;;;;;;;8.13;6.72;;;13.60;99.90;;;14.85;73.23;98198.94;5140898;28;20226;-77
2023/05/30 04:54:53;;;;;;;7.45;6.72;;;13.70;99.90;;;15.03;72.56;98207.50;5138271;28;20307;-77
2023/05/30 04:57:26;;;;;;;8.95;7.30;;;13.80;99.90;;;15.01;73.27;98210.81;5142696;28;20236;-77
2023/05/30 04:59:59;;;;;;;7.55;6.80;;;13.80;99.90;;;15.11;72.96;98213.00;5145685;28;20254;-77
2023/05/30 05:02:33;;;;;;;8.20;7.38;;;13.90;99.90;;;15.15;72.98;98217.47;5143783;28;20705;-77
2023/05/30 05:05:09;;;;;;;8.55;6.35;;;14.00;99.90;;;15.22;72.07;98222.09;5146361;28;20313;-77
2023/05/30 05:07:42;;;;;;;8.30;6.82;;;14.10;99.90;;;15.28;71.63;98217.22;5141254;28;20231;-77
2023/05/30 05:10:15;;;;;;;7.85;7.05;;;14.10;99.90;;;15.46;71.01;98218.84;5148804;28;20223;-77
2023/05/30 05:12:48;;;;;;;9.88;7.05;;;14.20;99.90;;;15.67;69.78;98222.31;5142581;28;20235;-77
2023/05/30 05:15:22;;;;;;;8.65;7.28;;;14.40;99.90;;;15.73;69.77;98220.03;5138292;28;20385;-76
2023/05/30 05:17:55;;;;;;;7.70;6.90;;;14.40;99.90;;;15.81;70.01;98219.50;5141071;28;20270;-77
2023/05/30 05:20:29;;;;;;;7.88;7.15;;;14.50;99.90;;;15.96;69.00;98221.00;5136207;28;20232;-77
2023/05/30 05:23:02;;;;;;;7.75;6.63;;;14.70;99.90;;;16.08;68.85;98220.66;5140908;28;20231;-77
2023/05/30 05:25:36;;;;;;;7.10;6.32;;;14.80;99.90;;;16.21;67.75;98225.47;5141788;28;20223;-81
2023/05/30 05:28:09;;;;;;;8.05;6.93;;;14.90;99.90;;;16.37;66.60;98228.69;5144958;28;20252;-78
2023/05/30 05:30:42;;;;;;;7.38;6.43;;;15.00;99.90;;;16.55;66.00;98226.84;5141324;28;20231;-80
2023/05/30 05:33:16;;;;;;;7.60;6.85;;;15.20;99.90;;;16.77;65.39;98231.19;5143559;28;20232;-79
2023/05/30 05:35:50;;;;;;;7.40;6.70;;;15.40;99.90;;;16.87;65.19;98222.06;5135575;28;20228;-79
2023/05/30 05:38:23;;;;;;;7.85;6.70;;;15.50;99.90;;;17.09;63.86;98219.47;5142129;28;20230;-79
2023/05/30 05:40:57;;;;;;;7.68;6.60;;;15.70;99.90;;;17.26;62.64;98229.56;5141851;28;20223;-79
2023/05/30 05:43:30;;;;;;;8.55;6.40;;;16.00;99.90;;;17.43;61.93;98230.19;5140382;28;20227;-80
2023/05/30 05:46:04;;;;;;;8.50;6.45;;;16.00;99.90;;;17.62;61.72;98232.56;5141847;28;20219;-80
2023/05/30 05:48:37;;;;;;;8.52;6.60;;;16.30;99.90;;;17.74;60.57;98237.28;5146766;28;20224;-79
2023/05/30 05:51:11;;;;;;;8.00;5.97;;;16.30;99.90;;;17.86;59.36;98242.06;5145603;28;20228;-80
2023/05/30 05:53:45;;;;;;;7.75;6.05;;;16.40;99.90;;;17.93;59.12;98237.13;5157549;28;20222;-79
2023/05/30 05:56:18;;;;;;;6.25;5.65;;;16.40;99.90;;;18.09;57.60;98235.09;5147704;28;20751;-80
2023/05/30 05:58:51;;;;;;;6.30;5.65;;;16.60;99.90;;;18.17;57.35;98231.03;5147794;28;20308;-80
2023/05/30 06:01:24;;;;;;;8.18;5.40;;;16.70;99.90;;;18.26;57.06;98238.19;5151617;28;20773;-79
2023/05/30 06:03:57;;;;;;;6.75;5.88;;;16.80;99.90;;;18.27;57.33;98239.97;5147351;28;20302;-80
2023/05/30 06:06:32;;;;;;;7.38;6.15;;;16.90;99.80;;;18.34;57.68;98240.25;5149353;28;20282;-81
2023/05/30 06:09:05;;;;;;;6.53;5.70;;;17.00;99.80;;;18.41;58.11;98239.59;5159012;28;20230;-81
2023/05/30 06:11:38;;;;;;;6.53;5.15;;;17.20;99.90;;;18.55;54.52;98246.94;5164037;28;21016;-79
2023/05/30 06:14:12;;;;;;;5.95;5.35;;;17.30;97.80;;;18.44;54.06;98250.03;5153828;28;20227;-81
2023/05/30 06:16:45;;;;;;;5.32;4.82;;;17.30;97.00;;;18.59;53.39;98247.06;5143206;28;20922;-81
2023/05/30 06:19:18;;;;;;;6.95;5.13;;;17.40;96.50;;;18.93;52.98;98250.75;5143907;28;20266;-81
2023/05/30 06:21:53;;;;;;;6.28;5.18;;;17.70;96.40;;;18.85;51.67;98253.09;5150120;28;20224;-81
2023/05/30 06:24:26;;;;;;;6.60;4.80;;;17.70;95.10;;;19.03;52.42;98257.06;5158302;28;20622;-80
2023/05/30 06:26:59;;;;;;;5.78;4.65;;;17.80;95.70;;;19.01;51.56;98254.44;5151482;28;20224;-81
2023/05/30 06:29:34;;;;;;;4.82;4.32;;;17.90;94.90;;;19.23;51.01;98258.56;5158536;28;20247;-80
2023/05/30 06:32:08;;;;;;;6.40;5.53;;;18.10;94.70;;;19.20;50.96;98257.56;5156523;28;20231;-81
2023/05/30 06:34:48;;;;;;;5.38;4.88;;;18.10;94.50;;;18.98;51.38;98258.66;5149074;28;20227;-80
2023/05/30 06:37:23;;;;;;;6.78;5.10;;;18.10;94.40;;;19.42;50.87;98256.47;5159052;28;20219;-81
2023/05/30 06:39:56;;;;;;;6.05;5.00;;;18.30;94.20;;;19.58;50.05;98267.34;5150879;28;20223;-80
2023/05/30 06:42:29;;;;;;;5.03;4.50;;;18.40;93.70;;;19.66;50.36;98269.28;5148758;28;20238;-81
2023/05/30 06:45:03;;;;;;;5.78;4.50;;;18.50;93.90;;;19.77;50.68;98260.09;5144483;28;20228;-80
2023/05/30 06:47:36;;;;;;;6.20;4.57;;;18.70;94.40;;;19.80;49.63;98266.25;5159181;28;20680;-80
2023/05/30 06:50:10;;;;;;;4.95;4.45;;;18.80;93.20;;;20.14;49.88;98271.44;5148973;28;20228;-81
2023/05/30 06:52:45;;;;;;;4.43;3.83;;;18.90;93.70;;;20.61;49.25;98264.88;5148173;28;20725;-79
2023/05/30 06:55:18;;;;;;;5.85;4.72;;;19.40;93.50;;;20.44;48.11;98269.63;5144996;28;20232;-81
2023/05/30 06:57:55;;;;;;;6.03;5.03;;;19.30;92.40;;;20.81;47.10;98267.06;5150185;28;20373;-80
2023/05/30 07:00:28;;;;;;;5.30;4.80;;;19.50;92.10;;;20.90;46.44;98267.28;5146996;28;20235;-80
2023/05/30 07:03:01;;;;;;;6.28;4.70;;;19.60;91.50;;;21.20;46.68;98269.66;5147855;28;20729;-81
2023/05/30 07:05:34;;;;;;;7.05;5.20;;;19.90;91.80;;;21.49;45.51;98275.53;5152501;28;20311;-80
2023/05/30 07:08:09;;;;;;;5.18;4.30;;;20.10;91.10;;;21.77;45.06;98273.47;5154585;28;20234;-81
2023/05/30 07:10:42;;;;;;;5.25;4.75;;;20.40;90.50;;;21.44;45.26;98277.16;5149390;28;20223;-81
2023/05/30 07:13:16;;;;;;;4.75;4.35;;;20.20;90.50;;;21.39;45.43;98273.56;5144933;28;20288;-82
2023/05/30 07:15:50;;;;;;;4.60;4.15;;;20.10;90.70;;;21.25;45.46;98267.16;5147320;28;20287;-81
2023/05/30 07:18:23;;;;;;;8.05;4.68;;;20.10;90.70;;;21.39;46.44;98268.38;5149019;28;20270;-82
2023/05/30 07:20:56;;;;;;;4.90;4.40;;;20.30;91.00;;;21.88;44.54;98273.66;5144473;28;20700;-82
2023/05/30 07:23:31;;;;;;;5.25;4.43;;;20.60;90.20;;;22.36;44.76;98273.72;5148629;28;20752;-82
2023/05/30 07:26:04;;;;;;;6.20;4.80;;;20.90;90.50;;;21.52;44.92;98275.59;5144377;28;20677;-82
2023/05/30 07:28:38;;;;;;;5.05;4.40;;;20.80;88.30;;;22.26;44.36;98282.19;5158267;28;20294;-81
2023/05/30 07:31:11;;;;;;;9.07;4.68;;;21.00;89.20;;;22.21;43.90;98278.66;5148822;28;20609;-82
2023/05/30 07:33:44;;;;;;;7.20;4.43;;;21.10;88.40;;;22.60;43.27;98278.44;5149340;28;20636;-82
2023/05/30 07:36:17;;;;;;;6.03;4.88;;;21.40;87.80;;;22.57;43.10;98277.50;5142475;28;20228;-82
2023/05/30 07:38:52;;;;;;;5.78;4.90;;;21.40;87.30;;;23.14;41.97;98279.28;5145989;28;20596;-82
2023/05/30 07:41:25;;;;;;;6.43;4.80;;;21.80;86.90;;;22.93;42.44;98272.88;5148505;28;20285;-82
2023/05/30 07:43:58;;;;;;;5.35;4.20;;;21.70;86.60;;;22.85;42.33;98274.50;5155722;28;20227;-82
2023/05/30 07:46:31;;;;;;;5.45;4.45;;;21.70;85.90;;;23.37;42.01;98269.16;5152140;28;20289;-82
2023/05/30 07:49:05;;;;;;;6.05;4.40;;;21.90;86.70;;;22.89;42.71;98263.28;5155521;28;20239;-82
2023/05/30 07:51:38;;;;;;;5.78;4.57;;;21.60;86.80;;;22.67;42.07;98258.59;5156468;28;20228;-81
2023/05/30 07:54:12;;;;;;;4.90;4.43;;;21.60;85.70;;;23.25;41.44;98259.44;5145512;28;20294;-82
2023/05/30 07:56:45;;;;;;;5.50;4.85;;;21.90;85.60;;;23.51;40.87;98256.28;5152679;28;20544;-82
2023/05/30 07:59:18;;;;;;;5.72;4.78;;;22.00;84.90;;;22.27;43.03;98251.00;5152886;28;20231;-82
2023/05/30 08:01:52;;;;;;;5.25;4.75;;;21.20;86.30;;;23.30;41.93;98262.13;5147429;28;20224;-82
2023/05/30 08:04:25;;;;;;;5.75;4.90;;;21.80;86.70;;;23.72;41.35;98261.81;5153865;28;20653;-82
2023/05/30 08:06:58;;;;;;;5.93;4.38;;;22.10;86.10;;;23.58;40.83;98258.13;5149517;28;20599;-82
2023/05/30 08:09:33;;;;;;;5.50;4.47;;;22.10;85.00;;;23.68;40.27;98266.91;5154437;28;20368;-82
2023/05/30 08:12:08;;;;;;;5.93;4.60;;;22.30;84.10;;;22.85;41.54;98256.25;5151556;28;20278;-80
2023/05/30 08:14:41;;;;;;;6.05;4.05;;;21.70;84.30;;;23.19;42.03;98264.56;5148890;28;20719;-82
2023/05/30 08:17:16;;;;;;;5.63;4.47;;;21.90;86.10;;;23.71;41.60;98254.81;5144328;28;20231;-82
2023/05/30 08:19:50;;;;;;;5.38;4.40;;;22.40;85.90;;;23.98;41.13;98254.25;5150781;28;20253;-82
2023/05/30 08:22:24;;;;;;;6.15;4.05;;;22.80;83.80;;;24.27;40.60;98249.28;5140702;28;20295;-82
2023/05/30 08:25:00;;;;;;;5.63;4.60;;;23.00;83.70;;;24.38;38.90;98252.00;5148647;28;20278;-82
2023/05/30 08:27:34;;;;;;;5.57;4.20;;;23.20;81.50;;;24.29;40.31;98254.50;5152516;28;20219;-82
2023/05/30 08:30:09;;;;;;;5.55;4.45;;;23.10;83.30;;;24.15;39.93;98253.50;5157572;28;20293;-82
2023/05/30 08:32:42;;;;;;;5.05;4.53;;;23.10;82.40;;;23.94;39.55;98260.28;5154380;28;20282;-82
2023/05/30 08:35:15;;;;;;;4.80;4.28;;;23.10;81.00;;;24.28;39.61;98261.47;5155948;28;20227;-82
2023/05/30 08:37:48;;;;;;;7.07;4.95;;;23.30;81.50;;;23.89;39.09;98253.25;5149499;28;20250;-82
2023/05/30 08:40:26;;;;;;;6.20;4.72;;;23.10;79.80;;;23.94;39.71;98262.00;5147018;28;20228;-82
2023/05/30 08:42:59;;;;;;;5.47;4.75;;;22.80;81.00;;;24.35;38.59;98251.97;5151590;28;20708;-83
2023/05/30 08:45:32;;;;;;;6.35;4.80;;;23.40;79.20;;;23.73;39.27;98257.44;5146904;28;20224;-82
2023/05/30 08:48:07;;;;;;;4.93;4.30;;;23.10;79.30;;;23.60;39.80;98256.38;5144160;28;20712;-81
2023/05/30 08:50:42;;;;;;;6.53;4.70;;;22.80;80.60;;;23.47;39.50;98249.28;5151353;28;20301;-82
2023/05/30 08:53:26;;;;;;;6.53;4.50;;;22.90;79.90;;;23.63;39.42;98251.19;5148589;28;20230;-83
2023/05/30 08:56:08;;;;;;;6.80;5.00;;;22.80;79.80;;;23.09;41.03;98252.25;5147418;28;20231;-82
2023/05/30 08:58:45;;;;;;;6.82;4.70;;;22.50;81.20;;;23.09;40.69;98252.25;5156154;28;20223;-83
2023/05/30 09:01:19;;;;;;;5.25;4.50;;;22.50;81.00;;;23.54;40.20;98253.72;5150136;28;20679;-82
2023/05/30 09:03:53;;;;;;;4.82;4.32;;;22.80;80.70;;;23.58;39.74;98258.13;5142553;28;20235;-81
2023/05/30 09:06:27;;;;;;;5.13;4.00;;;22.90;79.80;;;23.69;39.35;98256.47;5144924;28;20285;-82
2023/05/30 09:09:02;;;;;;;7.55;4.60;;;22.80;79.70;;;23.96;39.62;98250.72;5142842;28;20220;-82
2023/05/30 09:11:37;;;;;;;6.18;4.25;;;23.10;79.90;;;23.81;40.15;98247.97;5153599;28;20226;-82
2023/05/30 09:14:10;;;;;;;4.93;4.28;;;23.10;80.70;;;24.21;39.85;98249.25;5149217;28;20223;-83
2023/05/30 09:16:44;;;;;;;4.90;4.18;;;23.50;80.50;;;24.44;38.61;98243.38;5151746;28;20659;-83
2023/05/30 09:19:17;;;;;;;5.85;4.68;;;23.70;78.70;;;23.71;40.29;98246.09;5149238;28;20247;-82
2023/05/30 09:21:51;;;;;;;5.18;4.40;;;23.30;80.20;;;23.30;40.89;98252.56;5144895;28;20216;-83
2023/05/30 09:24:24;;;;;;;6.97;4.53;;;22.80;80.90;;;23.82;41.24;98253.19;5153769;28;20231;-83
2023/05/30 09:27:01;;;;;;;4.80;4.32;;;23.20;82.00;;;24.33;39.79;98248.47;5155394;28;20220;-83
2023/05/30 09:29:43;;;;;;;5.80;4.20;;;23.80;79.40;;;24.59;38.62;98253.94;5166677;28;20218;-83
2023/05/30 09:32:16;;;;;;;5.40;4.25;;;24.00;78.50;;;24.55;38.89;98246.91;5177127;28;20263;-81
2023/05/30 09:34:56;;;;;;;5.97;4.55;;;24.10;78.20;;;24.58;39.36;98241.75;5164942;28;20220;-82
2023/05/30 09:37:37;;;;;;;6.00;4.47;;;24.10;78.70;;;24.78;39.02;98243.59;5168326;28;20546;-83
2023/05/30 09:40:15;;;;;;;5.47;4.32;;;24.20;78.80;;;25.09;38.97;98250.75;5170876;28;20255;-83
2023/05/30 09:42:51;;;;;;;5.35;4.15;;;24.50;78.30;;;25.27;37.63;98254.41;5163713;28;20251;-82
2023/05/30 09:45:26;;;;;;;6.35;4.93;;;24.70;76.20;;;24.67;36.86;98243.53;5168389;28;20223;-83
2023/05/30 09:47:59;;;;;;;5.38;4.22;;;24.10;75.20;;;24.38;37.27;98245.88;5155448;28;20222;-83
2023/05/30 09:50:32;;;;;;;6.95;4.30;;;23.80;75.10;;;23.93;39.02;98245.47;5152777;28;20290;-82
2023/05/30 09:53:05;;;;;;;6.97;4.30;;;23.20;77.80;;;24.29;38.19;98233.59;5145548;28;20637;-82
2023/05/30 09:55:38;;;;;;;5.05;4.43;;;23.40;77.20;;;24.45;38.07;98245.09;5143126;28;20232;-82
2023/05/30 09:58:20;;;;;;;5.13;4.30;;;23.80;76.50;;;23.86;39.76;98248.00;5150134;28;20314;-82
2023/05/30 10:00:55;;;;;;;4.65;4.25;;;23.50;78.40;;;24.23;38.06;98239.66;5151823;28;20216;-82
2023/05/30 10:03:43;;;;;;;6.50;4.40;;;23.60;76.70;;;24.30;37.41;98238.00;5151157;28;20223;-82
2023/05/30 10:06:17;;;;;;;5.47;4.40;;;23.70;75.50;;;24.62;36.65;98233.03;5152985;28;21016;-82
2023/05/30 10:08:50;;;;;;;4.85;4.35;;;24.00;74.30;;;24.54;38.58;98232.09;5140063;28;20230;-81
2023/05/30 10:11:26;;;;;;;5.88;4.47;;;24.00;76.80;;;24.59;36.89;98225.19;5151496;28;20274;-83
2023/05/30 10:14:00;;;;;;;6.05;4.45;;;24.10;75.30;;;24.04;37.51;98233.41;5153688;28;20223;-83
2023/05/30 10:16:35;;;;;;;6.05;4.38;;;23.70;74.60;;;24.30;37.98;98229.28;5151300;28;20219;-83
2023/05/30 10:19:14;;;;;;;5.00;4.50;;;23.80;75.90;;;24.22;37.20;98224.84;5147670;28;20670;-81
2023/05/30 10:21:48;;;;;;;5.18;4.18;;;23.60;74.80;;;24.41;38.66;98222.38;5150036;28;20356;-82
2023/05/30 10:24:23;;;;;;;5.22;4.15;;;23.80;76.60;;;24.47;36.69;98225.97;5146265;28;20702;-82
2023/05/30 10:27:01;;;;;;;6.43;4.47;;;23.90;74.00;;;24.22;37.24;98216.16;5156384;28;20242;-82
2023/05/30 10:29:47;;;;;;;4.25;3.85;;;23.80;74.40;;;24.42;37.17;98214.56;5146562;28;20238;-82
2023/05/30 10:32:27;;;;;;;5.45;4.03;;;24.00;75.00;;;24.24;37.37;98210.06;5151841;28;20308;-82
2023/05/30 10:35:08;;;;;;;4.90;4.40;;;23.80;74.60;;;24.16;37.12;98208.25;5147968;28;20700;-83
2023/05/30 10:37:42;;;;;;;4.55;4.15;;;23.80;73.70;;;24.45;36.75;98204.16;5153061;28;20267;-83
2023/05/30 10:40:30;;;;;;;5.70;4.20;;;23.90;73.70;;;24.35;36.75;98201.44;5152357;28;20231;-83
2023/05/30 10:43:21;;;;;;;4.85;4.35;;;23.90;73.20;;;24.61;36.32;98199.03;5152218;28;20223;-81
2023/05/30 10:46:13;;;;;;;5.15;4.25;;;24.20;72.80;;;24.73;36.02;98200.00;5153397;28;20224;-82
2023/05/30 10:48:53;;;;;;;5.20;4.30;;;24.30;72.60;;;24.74;35.71;98216.56;5151060;28;20228;-83
2023/05/30 10:51:26;;;;;;;5.63;4.45;;;24.10;73.20;;;24.78;35.90;98196.53;5154586;28;20223;-81